Time;durP1;ratioP1;P1;durP2;ratioP2;P2;SDS_P1;SDS_P2;PMS_P1;PMS_P2;Temp;Humidity;BMP_temperature;BMP_pressure;BME280_temperature;BME280_humidity;BME280_pressure;Samples;Min_cycle;Max_cycle;Signal;HPM_P1;HPM_P2
2023/08/04 00:01:59;;;;;;;6.18;1.70;;;;;;;-142.75;100.00;75958.16;5067218;28;20024;-64
2023/08/04 00:04:24;;;;;;;5.57;1.73;;;;;;;-142.75;100.00;75958.16;5067125;28;20032;-64
2023/08/04 00:06:51;;;;;;;8.88;1.83;;;;;;;-142.75;100.00;75960.13;5067214;28;20048;-64
2023/08/04 00:09:17;;;;;;;7.78;1.98;;;;;;;-142.75;100.00;75964.03;5067255;28;20020;-64
2023/08/04 00:11:42;;;;;;;8.40;2.08;;;;;;;-142.75;100.00;75950.28;5066924;28;20115;-64
2023/08/04 00:14:08;;;;;;;5.35;1.73;;;;;;;-142.75;100.00;75944.38;5067237;28;20032;-64
2023/08/04 00:16:33;;;;;;;7.47;1.83;;;;;;;-142.75;100.00;75950.28;5066820;28;20020;-64
2023/08/04 00:18:58;;;;;;;6.88;2.63;;;;;;;-142.75;100.00;75944.38;5067160;28;20012;-64
2023/08/04 00:21:24;;;;;;;6.53;1.77;;;;;;;-142.75;100.00;75948.31;5067161;28;20127;-64
2023/08/04 00:23:49;;;;;;;13.27;2.42;;;;;;;-142.75;100.00;75944.38;5067244;28;20420;-64
2023/08/04 00:26:15;;;;;;;5.78;2.03;;;;;;;-142.75;100.00;75936.50;5067576;28;20027;-64
2023/08/04 00:28:40;;;;;;;9.55;2.08;;;;;;;-142.75;100.00;75938.47;5067062;28;20425;-64
2023/08/04 00:31:05;;;;;;;5.22;1.85;;;;;;;-142.75;100.00;75944.38;5066964;28;20120;-64
2023/08/04 00:33:31;;;;;;;9.05;2.08;;;;;;;-142.75;100.00;75948.31;5068338;28;20060;-64
2023/08/04 00:35:56;;;;;;;5.30;2.08;;;;;;;-142.75;100.00;75946.34;5066996;28;20032;-64
2023/08/04 00:38:21;;;;;;;10.25;2.92;;;;;;;-142.75;100.00;75954.22;5067041;28;20024;-64
2023/08/04 00:40:47;;;;;;;7.22;1.80;;;;;;;-142.75;100.00;75950.28;5066936;28;20487;-63
2023/08/04 00:43:12;;;;;;;8.90;2.00;;;;;;;-142.75;100.00;75944.38;5066499;28;20032;-64
2023/08/04 00:45:38;;;;;;;4.35;1.65;;;;;;;-142.75;100.00;75944.38;5068177;28;20028;-64
2023/08/04 00:48:04;;;;;;;13.45;2.42;;;;;;;-142.75;100.00;75967.97;5068047;28;20092;-64
2023/08/04 00:50:30;;;;;;;16.50;2.20;;;;;;;-142.75;100.00;75960.13;5067035;28;20112;-64
2023/08/04 00:52:56;;;;;;;9.23;2.90;;;;;;;-142.75;100.00;75966.00;5066764;28;20050;-64
2023/08/04 00:55:22;;;;;;;6.65;1.90;;;;;;;-142.75;100.00;75962.09;5067311;28;20174;-64
2023/08/04 00:57:48;;;;;;;9.05;2.42;;;;;;;-142.75;100.00;75952.25;5066782;28;20629;-64
2023/08/04 01:00:14;;;;;;;10.55;1.50;;;;;;;-142.75;100.00;75946.34;5066585;28;20487;-64
2023/08/04 01:02:39;;;;;;;5.93;1.70;;;;;;;-142.75;100.00;75952.25;5066443;28;20031;-64
2023/08/04 01:05:06;;;;;;;10.88;1.70;;;;;;;-142.75;100.00;75934.53;5066609;28;20234;-64
2023/08/04 01:07:39;;;;;;;6.15;2.53;;;;;;;-142.75;100.00;75952.25;5065223;28;20029;-64
2023/08/04 01:10:07;;;;;;;10.05;2.10;;;;;;;-142.75;100.00;75940.44;5066845;28;20453;-64
2023/08/04 01:13:04;;;;;;;10.60;1.77;;;;;;;-142.75;100.00;75934.53;5066496;28;20021;-64
2023/08/04 01:15:30;;;;;;;5.18;1.80;;;;;;;-142.75;100.00;75956.19;5066716;28;20024;-64
2023/08/04 01:17:56;;;;;;;7.38;1.85;;;;;;;-142.75;100.00;75958.16;5066383;28;20536;-64
2023/08/04 01:20:23;;;;;;;6.32;1.50;;;;;;;-142.75;100.00;75956.19;5066612;28;20055;-64
2023/08/04 01:22:49;;;;;;;7.13;1.80;;;;;;;-142.75;100.00;75960.13;5065268;28;20025;-64
2023/08/04 01:25:15;;;;;;;8.57;1.85;;;;;;;-142.75;100.00;75969.94;5067020;28;20025;-64
2023/08/04 01:27:48;;;;;;;8.13;2.40;;;;;;;-142.75;100.00;75948.31;5066409;28;20021;-64
2023/08/04 01:30:19;;;;;;;5.47;1.90;;;;;;;-142.75;100.00;75946.34;5066551;28;20495;-64
2023/08/04 01:32:44;;;;;;;6.10;1.65;;;;;;;-142.75;100.00;75952.25;5066196;28;20032;-64
2023/08/04 01:35:11;;;;;;;9.00;2.13;;;;;;;-142.75;100.00;75952.25;5066531;28;20027;-63
2023/08/04 01:37:36;;;;;;;11.85;1.60;;;;;;;-142.75;100.00;75944.38;5066261;28;20039;-64
2023/08/04 01:40:02;;;;;;;8.48;2.60;;;;;;;-142.75;100.00;75940.44;5066500;28;20024;-62
2023/08/04 01:42:27;;;;;;;6.90;1.70;;;;;;;-142.75;100.00;75932.56;5065860;28;20029;-64
2023/08/04 01:44:53;;;;;;;8.27;1.73;;;;;;;-142.75;100.00;75934.53;5066552;28;20052;-64
2023/08/04 01:47:18;;;;;;;3.00;1.27;;;;;;;-142.75;100.00;75926.66;5067024;28;20023;-64
2023/08/04 01:49:43;;;;;;;13.98;2.55;;;;;;;-142.75;100.00;75930.59;5070089;28;20020;-64
2023/08/04 01:52:09;;;;;;;6.93;1.90;;;;;;;-142.75;100.00;75932.56;5070991;28;20032;-64
2023/08/04 01:54:34;;;;;;;10.40;1.73;;;;;;;-142.75;100.00;75930.59;5070159;28;20051;-64
2023/08/04 01:56:59;;;;;;;7.70;1.48;;;;;;;-142.75;100.00;75940.44;5069754;28;20514;-64
2023/08/04 01:59:25;;;;;;;4.60;1.85;;;;;;;-142.75;100.00;75936.50;5069719;28;20074;-64
2023/08/04 02:01:50;;;;;;;3.67;1.77;;;;;;;-142.75;100.00;75944.38;5069337;28;20031;-64
2023/08/04 02:04:15;;;;;;;7.60;1.75;;;;;;;-142.75;100.00;75960.13;5072178;28;21793;-64
2023/08/04 02:06:41;;;;;;;10.45;2.13;;;;;;;-142.75;100.00;75960.13;5089319;28;20499;-64
2023/08/04 02:09:06;;;;;;;4.50;1.58;;;;;;;-142.75;100.00;75964.03;5089739;28;20117;-64
2023/08/04 02:11:32;;;;;;;10.23;1.98;;;;;;;-142.75;100.00;75975.84;5089131;28;20114;-62
2023/08/04 02:13:58;;;;;;;5.82;1.77;;;;;;;-142.75;100.00;75969.94;5089678;28;20024;-65
2023/08/04 02:16:24;;;;;;;6.28;2.17;;;;;;;-142.75;100.00;75975.84;5089408;28;20024;-64
2023/08/04 02:18:49;;;;;;;5.63;1.60;;;;;;;-142.75;100.00;75971.91;5089580;28;20034;-64
2023/08/04 02:21:14;;;;;;;7.50;1.88;;;;;;;-142.75;100.00;75971.91;5089713;28;20041;-64
2023/08/04 02:23:40;;;;;;;5.03;1.90;;;;;;;-142.75;100.00;75971.91;5089477;28;20456;-64
2023/08/04 02:26:05;;;;;;;5.20;1.38;;;;;;;-142.75;100.00;75964.03;5089864;28;20036;-64
2023/08/04 02:28:30;;;;;;;18.27;2.30;;;;;;;-142.75;100.00;75960.13;5089464;28;20035;-64
2023/08/04 02:30:58;;;;;;;12.90;2.60;;;;;;;-142.75;100.00;75948.31;5089315;28;20110;-64
2023/08/04 02:33:24;;;;;;;7.05;1.90;;;;;;;-142.75;100.00;75956.19;5088915;28;20028;-64
2023/08/04 02:35:49;;;;;;;9.55;1.90;;;;;;;-142.75;100.00;75956.19;5089108;28;20035;-64
2023/08/04 02:38:14;;;;;;;6.45;1.90;;;;;;;-142.75;100.00;75960.13;5089157;28;20024;-64
2023/08/04 02:40:40;;;;;;;7.95;1.92;;;;;;;-142.75;100.00;75954.22;5088641;28;20062;-64
2023/08/04 02:43:05;;;;;;;9.93;2.03;;;;;;;-142.75;100.00;75958.16;5088874;28;20028;-64
2023/08/04 02:45:31;;;;;;;8.88;2.03;;;;;;;-142.75;100.00;75956.19;5087823;28;20027;-64
2023/08/04 02:47:56;;;;;;;4.45;1.75;;;;;;;-142.75;100.00;75964.03;5089023;28;20072;-64
2023/08/04 02:50:21;;;;;;;4.63;1.98;;;;;;;-142.75;100.00;75966.00;5088718;28;20497;-64
2023/08/04 02:52:47;;;;;;;7.70;1.80;;;;;;;-142.75;100.00;75966.00;5074059;28;20031;-64
2023/08/04 02:55:12;;;;;;;6.13;1.77;;;;;;;-142.75;100.00;75969.94;5069797;28;20058;-64
2023/08/04 02:57:38;;;;;;;7.40;1.98;;;;;;;-142.75;100.00;75975.84;5068249;28;20117;-64
2023/08/04 03:00:04;;;;;;;5.78;2.08;;;;;;;-142.75;100.00;75973.88;5067874;28;20096;-64
2023/08/04 03:02:29;;;;;;;5.00;1.30;;;;;;;-142.75;100.00;75985.69;5068414;28;20484;-64
2023/08/04 03:04:55;;;;;;;7.40;1.75;;;;;;;-142.75;100.00;75973.88;5068391;28;20033;-64
2023/08/04 03:07:20;;;;;;;6.13;1.80;;;;;;;-142.75;100.00;75971.91;5068269;28;20020;-64
2023/08/04 03:09:45;;;;;;;8.50;1.90;;;;;;;-142.75;100.00;75967.97;5067048;28;20033;-64
2023/08/04 03:12:11;;;;;;;5.78;1.80;;;;;;;-142.75;100.00;75960.13;5067987;28;20408;-64
2023/08/04 03:14:36;;;;;;;5.55;1.48;;;;;;;-142.75;100.00;75952.25;5068196;28;20095;-64
2023/08/04 03:17:02;;;;;;;4.07;2.03;;;;;;;-142.75;100.00;75964.03;5068086;28;20037;-64
2023/08/04 03:19:27;;;;;;;4.57;1.88;;;;;;;-142.75;100.00;75956.19;5068255;28;20154;-65
2023/08/04 03:21:52;;;;;;;6.78;2.10;;;;;;;-142.75;100.00;75948.31;5079999;28;20112;-64
2023/08/04 03:24:18;;;;;;;6.10;1.73;;;;;;;-142.75;100.00;75967.97;5088279;28;20097;-64
2023/08/04 03:26:43;;;;;;;6.03;1.45;;;;;;;-142.75;100.00;75952.25;5088545;28;20035;-64
2023/08/04 03:29:08;;;;;;;5.55;1.88;;;;;;;-142.75;100.00;75950.28;5088267;28;20510;-64
2023/08/04 03:31:34;;;;;;;5.68;1.80;;;;;;;-142.75;100.00;75944.38;5088042;28;20023;-64
2023/08/04 03:33:59;;;;;;;3.35;1.55;;;;;;;-142.75;100.00;75950.28;5088279;28;20085;-64
2023/08/04 03:36:25;;;;;;;5.95;1.60;;;;;;;-142.75;100.00;75948.31;5087899;28;20554;-64
2023/08/04 03:38:50;;;;;;;5.18;1.65;;;;;;;-142.75;100.00;75944.38;5088014;28;20031;-64
2023/08/04 03:41:15;;;;;;;4.32;1.45;;;;;;;-142.75;100.00;75956.19;5087608;28;20107;-64
2023/08/04 03:43:40;;;;;;;7.00;1.90;;;;;;;-142.75;100.00;75960.13;5087585;28;20481;-64
2023/08/04 03:46:06;;;;;;;4.82;1.65;;;;;;;-142.75;100.00;75952.25;5087541;28;20027;-64
2023/08/04 03:48:31;;;;;;;5.40;1.80;;;;;;;-142.75;100.00;75967.97;5087920;28;20023;-64
2023/08/04 03:50:56;;;;;;;4.95;1.58;;;;;;;-142.75;100.00;75966.00;5087849;28;20415;-64
2023/08/04 03:53:22;;;;;;;4.68;1.70;;;;;;;-142.75;100.00;75962.09;5087781;28;20024;-64
2023/08/04 03:55:47;;;;;;;5.93;1.63;;;;;;;-142.75;100.00;75952.25;5077540;28;20020;-64
2023/08/04 03:58:13;;;;;;;4.80;1.75;;;;;;;-142.75;100.00;75954.22;5067416;28;20020;-64
2023/08/04 04:00:38;;;;;;;5.13;1.95;;;;;;;-142.75;100.00;75964.03;5067469;28;20051;-64
2023/08/04 04:03:04;;;;;;;3.78;1.30;;;;;;;-142.75;100.00;75956.19;5067260;28;20032;-64
2023/08/04 04:05:30;;;;;;;6.00;1.95;;;;;;;-142.75;100.00;75950.28;5067795;28;20051;-64
2023/08/04 04:07:55;;;;;;;5.45;1.50;;;;;;;-142.75;100.00;75948.31;5067602;28;20012;-64
2023/08/04 04:10:20;;;;;;;8.18;1.70;;;;;;;-142.75;100.00;75948.31;5066708;28;20632;-64
2023/08/04 04:12:46;;;;;;;5.55;1.85;;;;;;;-142.75;100.00;75954.22;5067145;28;20400;-65
2023/08/04 04:15:11;;;;;;;3.78;1.73;;;;;;;-142.75;100.00;75956.19;5067303;28;20063;-64
2023/08/04 04:17:37;;;;;;;6.03;1.80;;;;;;;-142.75;100.00;75950.28;5067200;28;20111;-64
2023/08/04 04:20:03;;;;;;;4.68;1.73;;;;;;;-142.75;100.00;75944.38;5067149;28;20090;-64
2023/08/04 04:22:30;;;;;;;6.60;1.77;;;;;;;-142.75;100.00;75940.44;5067053;28;20020;-64
2023/08/04 04:24:55;;;;;;;4.43;1.90;;;;;;;-142.75;100.00;75938.47;5067478;28;20055;-64
2023/08/04 04:27:21;;;;;;;3.58;1.70;;;;;;;-142.75;100.00;75940.44;5067299;28;20617;-64
2023/08/04 04:29:46;;;;;;;6.95;1.83;;;;;;;-142.75;100.00;75936.50;5067064;28;20473;-65
2023/08/04 04:32:11;;;;;;;5.05;1.85;;;;;;;-142.75;100.00;75944.38;5084288;28;20410;-64
2023/08/04 04:34:37;;;;;;;6.10;1.83;;;;;;;-142.75;100.00;75944.38;5087231;28;20024;-64
2023/08/04 04:37:02;;;;;;;3.78;1.58;;;;;;;-142.75;100.00;75940.44;5087139;28;20031;-64
2023/08/04 04:39:28;;;;;;;7.13;1.70;;;;;;;-142.75;100.00;75944.38;5086886;28;20483;-64
2023/08/04 04:41:53;;;;;;;6.88;1.90;;;;;;;-142.75;100.00;75946.34;5086831;28;20483;-64
2023/08/04 04:44:18;;;;;;;7.15;2.50;;;;;;;-142.75;100.00;75942.41;5087143;28;20124;-65
2023/08/04 04:46:44;;;;;;;7.78;2.28;;;;;;;-142.75;100.00;75956.19;5087037;28;20028;-64
2023/08/04 04:49:09;;;;;;;5.60;2.30;;;;;;;-142.75;100.00;75952.25;5086806;28;20016;-64
2023/08/04 04:51:35;;;;;;;10.82;2.22;;;;;;;-142.75;100.00;75946.34;5085215;28;20026;-64
2023/08/04 04:54:00;;;;;;;4.43;1.80;;;;;;;-142.75;100.00;75950.28;5067987;28;20492;-64
2023/08/04 04:56:25;;;;;;;4.35;2.00;;;;;;;-142.75;100.00;75942.41;5068175;28;20508;-64
2023/08/04 04:58:51;;;;;;;6.50;1.98;;;;;;;-142.75;100.00;75938.47;5066791;28;20131;-64
2023/08/04 05:01:16;;;;;;;2.97;1.60;;;;;;;-142.75;100.00;75938.47;5066749;28;20119;-64
2023/08/04 05:03:42;;;;;;;6.63;2.17;;;;;;;-142.75;100.00;75940.44;5066796;28;20060;-64
2023/08/04 05:06:07;;;;;;;5.90;2.03;;;;;;;-142.75;100.00;75938.47;5066581;28;20423;-64
2023/08/04 05:08:32;;;;;;;5.78;1.73;;;;;;;-142.75;100.00;75942.41;5066717;28;20375;-65
2023/08/04 05:10:58;;;;;;;6.15;2.15;;;;;;;-142.75;100.00;75936.50;5066583;28;20105;-64
2023/08/04 05:13:23;;;;;;;7.28;2.33;;;;;;;-142.75;100.00;75944.38;5066263;28;20035;-64
2023/08/04 05:15:49;;;;;;;4.18;1.77;;;;;;;-142.75;100.00;75952.25;5066975;28;20031;-64
2023/08/04 05:18:18;;;;;;;4.05;1.90;;;;;;;-142.75;100.00;75979.78;5066585;28;20035;-64
2023/08/04 05:20:47;;;;;;;6.43;2.00;;;;;;;-142.75;100.00;75989.63;5066686;28;20039;-65
2023/08/04 05:23:13;;;;;;;3.60;1.92;;;;;;;-142.75;100.00;75979.78;5069911;28;20032;-64
2023/08/04 05:25:39;;;;;;;4.50;2.20;;;;;;;-142.75;100.00;75979.78;5070795;28;20021;-64
2023/08/04 05:28:30;;;;;;;6.88;2.38;;;;;;;-142.75;100.00;75985.69;5070382;28;20062;-64
2023/08/04 05:30:59;;;;;;;8.02;2.60;;;;;;;-142.75;100.00;75981.75;5068904;28;20036;-64
2023/08/04 05:33:25;;;;;;;11.10;2.83;;;;;;;-142.75;100.00;75981.75;5070009;28;20534;-64
2023/08/04 05:35:51;;;;;;;5.57;2.35;;;;;;;-142.75;100.00;75967.97;5070035;28;20032;-64
2023/08/04 05:38:16;;;;;;;3.47;1.90;;;;;;;-142.75;100.00;75971.91;5069405;28;20569;-64
2023/08/04 05:40:44;;;;;;;7.90;2.45;;;;;;;-142.75;100.00;75958.16;5072646;28;20610;-64
2023/08/04 05:43:11;;;;;;;5.82;1.88;;;;;;;-142.75;100.00;75979.78;5069067;28;20566;-64
2023/08/04 05:45:38;;;;;;;5.93;2.20;;;;;;;-142.75;100.00;75993.56;5066832;28;20513;-64
2023/08/04 05:48:04;;;;;;;6.38;2.20;;;;;;;-142.75;100.00;76001.44;5068258;28;20020;-64
2023/08/04 05:50:31;;;;;;;6.70;2.22;;;;;;;-142.75;100.00;75999.47;5068461;28;20103;-64
2023/08/04 05:52:57;;;;;;;4.22;1.92;;;;;;;-142.75;100.00;75999.47;5081814;28;20038;-64
2023/08/04 05:55:23;;;;;;;2.90;1.85;;;;;;;-142.75;100.00;76023.09;5088431;28;20028;-64
2023/08/04 05:57:50;;;;;;;6.10;2.10;;;;;;;-142.75;100.00;76015.22;5072131;28;20025;-65
2023/08/04 06:00:16;;;;;;;3.58;1.75;;;;;;;-142.75;100.00;76034.91;5069783;28;20037;-65
2023/08/04 06:02:43;;;;;;;4.47;1.65;;;;;;;-142.75;100.00;76027.03;5070582;28;20028;-65
2023/08/04 06:05:09;;;;;;;3.28;1.40;;;;;;;-142.75;100.00;76044.75;5069716;28;20419;-64
2023/08/04 06:07:34;;;;;;;6.25;1.60;;;;;;;-142.75;100.00;76036.88;5070375;28;20103;-64
2023/08/04 06:09:59;;;;;;;7.15;1.70;;;;;;;-142.75;100.00;76038.84;5069624;28;20035;-65
2023/08/04 06:12:25;;;;;;;3.28;1.27;;;;;;;-142.75;100.00;76046.72;5069088;28;20430;-65
2023/08/04 06:14:50;;;;;;;5.00;1.75;;;;;;;-142.75;100.00;76027.03;5069518;28;20025;-65
2023/08/04 06:17:16;;;;;;;2.25;1.30;;;;;;;-142.75;100.00;76032.94;5070006;28;20107;-64
2023/08/04 06:19:42;;;;;;;6.97;1.60;;;;;;;-142.75;100.00;76025.06;5069407;28;20027;-64
2023/08/04 06:22:08;;;;;;;4.70;1.33;;;;;;;-142.75;100.00;76025.06;5069115;28;20078;-64
2023/08/04 06:24:33;;;;;;;4.05;1.65;;;;;;;-142.75;100.00;76034.91;5069675;28;20032;-65
2023/08/04 06:26:58;;;;;;;7.25;1.67;;;;;;;-142.75;100.00;76015.22;5070146;28;20092;-64
2023/08/04 06:29:24;;;;;;;6.00;1.30;;;;;;;-142.75;100.00;76013.25;5069020;28;20036;-64
2023/08/04 06:31:49;;;;;;;5.25;1.75;;;;;;;-142.75;100.00;76001.44;5070469;28;20024;-64
2023/08/04 06:34:14;;;;;;;2.70;1.50;;;;;;;-142.75;100.00;75987.66;5071331;28;20458;-64
2023/08/04 06:36:40;;;;;;;7.03;1.50;;;;;;;-142.75;100.00;75987.66;5073339;28;20020;-64
2023/08/04 06:39:05;;;;;;;4.43;1.75;;;;;;;-142.75;100.00;75983.72;5068791;28;20491;-65
2023/08/04 06:41:31;;;;;;;3.42;1.50;;;;;;;-142.75;100.00;75991.59;5068746;28;20024;-64
2023/08/04 06:43:56;;;;;;;4.55;1.15;;;;;;;-142.75;100.00;75971.91;5075792;28;20035;-64
2023/08/04 06:46:21;;;;;;;5.63;1.45;;;;;;;-142.75;100.00;75967.97;5088872;28;20020;-64
2023/08/04 06:48:46;;;;;;;6.07;1.80;;;;;;;-142.75;100.00;75960.13;5088613;28;20072;-64
2023/08/04 06:51:12;;;;;;;5.40;1.67;;;;;;;-142.75;100.00;75966.00;5089277;28;20498;-64
2023/08/04 06:53:37;;;;;;;6.90;2.22;;;;;;;-142.75;100.00;75958.16;5089647;28;20446;-64
2023/08/04 06:56:02;;;;;;;6.03;2.00;;;;;;;-142.75;100.00;75944.38;5089829;28;20436;-65
2023/08/04 06:58:28;;;;;;;4.90;1.63;;;;;;;-142.75;100.00;75924.69;5085712;28;20513;-64
2023/08/04 07:00:53;;;;;;;5.30;1.70;;;;;;;-142.75;100.00;75912.88;5069622;28;20024;-64
2023/08/04 07:03:19;;;;;;;53.03;5.03;;;;;;;-142.75;100.00;75897.13;5068713;28;20032;-64
2023/08/04 07:05:44;;;;;;;6.53;1.77;;;;;;;-142.75;100.00;75877.44;5069110;28;20016;-64
2023/08/04 07:08:09;;;;;;;4.20;1.60;;;;;;;-142.75;100.00;75873.50;5069017;28;20020;-65
2023/08/04 07:10:35;;;;;;;7.18;1.70;;;;;;;-142.75;100.00;75897.13;5069541;28;20059;-65
2023/08/04 07:13:01;;;;;;;5.55;1.65;;;;;;;-142.75;100.00;75893.19;5069257;28;20496;-65
2023/08/04 07:15:26;;;;;;;4.28;1.55;;;;;;;-142.75;100.00;75905.00;5068999;28;20036;-66
2023/08/04 07:17:51;;;;;;;8.32;1.95;;;;;;;-142.75;100.00;75879.41;5068356;28;20353;-65
2023/08/04 07:20:17;;;;;;;3.58;1.50;;;;;;;-142.75;100.00;75879.41;5075661;28;20031;-64
2023/08/04 07:22:42;;;;;;;7.97;1.50;;;;;;;-142.75;100.00;75903.03;5073906;28;20085;-64
2023/08/04 07:25:08;;;;;;;6.85;1.80;;;;;;;-142.75;100.00;75903.03;5076440;28;20107;-64
2023/08/04 07:27:33;;;;;;;5.88;1.70;;;;;;;-142.75;100.00;75936.50;5074702;28;20023;-65
2023/08/04 07:29:59;;;;;;;6.45;1.60;;;;;;;-142.75;100.00;75926.66;5079985;28;20024;-65
2023/08/04 07:32:24;;;;;;;5.80;1.90;;;;;;;-142.75;100.00;75926.66;5079387;28;20483;-64
2023/08/04 07:34:49;;;;;;;6.60;2.10;;;;;;;-142.75;100.00;75932.56;5078465;28;20110;-64
2023/08/04 07:37:16;;;;;;;6.50;1.58;;;;;;;-142.75;100.00;75942.41;5084310;28;20023;-64
2023/08/04 07:39:41;;;;;;;5.90;1.90;;;;;;;-142.75;100.00;75960.13;5076135;28;20077;-64
2023/08/04 07:42:06;;;;;;;9.10;2.15;;;;;;;-142.75;100.00;75967.97;5082576;28;20509;-64
2023/08/04 07:44:34;;;;;;;4.45;1.27;;;;;;;-142.75;100.00;75950.28;5078183;28;20052;-64
2023/08/04 07:46:59;;;;;;;5.18;1.73;;;;;;;-142.75;100.00;75924.69;5078958;28;20101;-65
2023/08/04 07:49:25;;;;;;;8.90;2.03;;;;;;;-142.75;100.00;75916.81;5071104;28;20082;-64
2023/08/04 07:51:50;;;;;;;6.68;1.60;;;;;;;-142.75;100.00;75883.34;5073914;28;20021;-64
2023/08/04 07:54:16;;;;;;;6.80;1.73;;;;;;;-142.75;100.00;75908.94;5078924;28;20425;-64
2023/08/04 07:56:41;;;;;;;7.57;2.10;;;;;;;-142.75;100.00;75920.75;5077172;28;20031;-64
2023/08/04 07:59:06;;;;;;;8.27;1.65;;;;;;;-142.75;100.00;75905.00;5081024;28;20024;-64
2023/08/04 08:01:31;;;;;;;3.80;1.38;;;;;;;-142.75;100.00;75903.03;5077466;28;20074;-64
2023/08/04 08:03:57;;;;;;;5.57;1.45;;;;;;;-142.75;100.00;75881.38;5083300;28;20039;-64
2023/08/04 08:06:22;;;;;;;5.53;1.38;;;;;;;-142.75;100.00;75879.41;5069771;28;20035;-64
2023/08/04 08:08:47;;;;;;;4.88;1.20;;;;;;;-142.75;100.00;75877.44;5071931;28;20654;-64
2023/08/04 08:11:13;;;;;;;5.25;1.40;;;;;;;-142.75;100.00;75845.97;5074291;28;20025;-64
2023/08/04 08:13:38;;;;;;;7.30;1.65;;;;;;;-142.75;100.00;75842.03;5066690;28;20455;-64
2023/08/04 08:16:12;;;;;;;7.43;1.77;;;;;;;-142.75;100.00;75802.66;5080839;28;20024;-64
2023/08/04 08:18:38;;;;;;;6.15;1.40;;;;;;;-142.75;100.00;75816.44;5080036;28;20033;-64
2023/08/04 08:21:06;;;;;;;6.60;1.50;;;;;;;-142.75;100.00;75826.28;5068095;28;20400;-64
2023/08/04 08:23:31;;;;;;;6.15;1.25;;;;;;;-142.75;100.00;75800.69;5070602;28;20532;-63
2023/08/04 08:25:56;;;;;;;5.78;1.20;;;;;;;-142.75;100.00;75842.03;5076561;28;20055;-64
2023/08/04 08:28:22;;;;;;;7.38;1.35;;;;;;;-142.75;100.00;75873.50;5072787;28;20031;-65
2023/08/04 08:30:47;;;;;;;3.22;1.00;;;;;;;-142.75;100.00;75855.81;5073853;28;20100;-64
2023/08/04 08:33:12;;;;;;;6.18;1.35;;;;;;;-142.75;100.00;75869.56;5072069;28;20017;-64
2023/08/04 08:35:37;;;;;;;3.38;0.90;;;;;;;-142.75;100.00;75885.31;5070075;28;20536;-63
2023/08/04 08:38:03;;;;;;;6.47;1.20;;;;;;;-142.75;100.00;75940.44;5070431;28;20535;-64
2023/08/04 08:40:28;;;;;;;5.10;1.20;;;;;;;-142.75;100.00;75938.47;5067992;28;20054;-63
2023/08/04 08:42:54;;;;;;;6.70;1.48;;;;;;;-142.75;100.00;75940.44;5075330;28;20025;-64
2023/08/04 08:46:01;;;;;;;6.88;1.42;;;;;;;-142.75;100.00;75914.84;5074871;28;20086;-64
2023/08/04 08:48:29;;;;;;;5.25;1.45;;;;;;;-142.75;100.00;75914.84;5073207;28;20044;-64
2023/08/04 08:51:02;;;;;;;5.50;1.10;;;;;;;-142.75;100.00;75889.25;5077444;28;20024;-63
2023/08/04 08:53:30;;;;;;;6.35;1.67;;;;;;;-142.75;100.00;75877.44;5077108;28;20032;-63
2023/08/04 08:55:59;;;;;;;3.58;1.23;;;;;;;-142.75;100.00;75865.63;5073491;28;20024;-62
2023/08/04 08:58:27;;;;;;;8.20;1.00;;;;;;;-142.75;100.00;75867.59;5073288;28;20094;-62
2023/08/04 09:00:53;;;;;;;3.58;1.00;;;;;;;-142.75;100.00;75845.97;5071470;28;20067;-63
2023/08/04 09:03:18;;;;;;;1.38;0.70;;;;;;;-142.75;100.00;75879.41;5071128;28;20583;-62
2023/08/04 09:05:44;;;;;;;3.72;0.90;;;;;;;-142.75;100.00;75842.03;5071444;28;20446;-63
2023/08/04 09:08:09;;;;;;;2.38;0.57;;;;;;;-142.75;100.00;75861.69;5071522;28;20571;-62
2023/08/04 09:10:37;;;;;;;5.50;0.80;;;;;;;-142.75;100.00;75845.97;5071272;28;20713;-61
2023/08/04 09:13:07;;;;;;;3.33;0.77;;;;;;;-142.75;100.00;75840.06;5071350;28;20078;-62
2023/08/04 09:15:34;;;;;;;3.53;0.80;;;;;;;-142.75;100.00;75842.03;5071277;28;20121;-63
2023/08/04 09:18:00;;;;;;;3.75;0.80;;;;;;;-142.75;100.00;75842.03;5071388;28;20037;-62
2023/08/04 09:20:28;;;;;;;2.25;0.60;;;;;;;-142.75;100.00;75818.41;5071371;28;20111;-62
2023/08/04 09:22:53;;;;;;;2.58;0.70;;;;;;;-142.75;100.00;75802.66;5070988;28;20488;-63
2023/08/04 09:25:19;;;;;;;5.60;0.80;;;;;;;-142.75;100.00;75798.72;5071196;28;20028;-62
2023/08/04 09:27:49;;;;;;;1.42;0.65;;;;;;;-142.75;100.00;75782.97;5071492;28;20025;-63
2023/08/04 09:30:16;;;;;;;4.95;0.80;;;;;;;-142.75;100.00;75784.94;5090402;28;20031;-62
2023/08/04 09:32:47;;;;;;;1.67;0.75;;;;;;;-142.75;100.00;75763.28;5090772;28;20031;-62
2023/08/04 09:35:13;;;;;;;3.00;0.88;;;;;;;-142.75;100.00;75773.13;5091199;28;20028;-63
2023/08/04 09:37:40;;;;;;;2.75;0.80;;;;;;;-142.75;100.00;75792.81;5090813;28;20575;-62
2023/08/04 09:40:13;;;;;;;4.30;0.70;;;;;;;-142.75;100.00;75757.41;5091046;28;20081;-62
2023/08/04 09:42:42;;;;;;;3.42;0.82;;;;;;;-142.75;100.00;75733.78;5090567;28;20498;-62
2023/08/04 09:45:12;;;;;;;5.03;0.90;;;;;;;-142.75;100.00;75702.28;5090947;28;20038;-63
2023/08/04 09:47:37;;;;;;;1.75;0.63;;;;;;;-142.75;100.00;75731.81;5090827;28;20115;-63
2023/08/04 09:50:08;;;;;;;3.28;0.50;;;;;;;-142.75;100.00;75753.47;5091024;28;20110;-63
2023/08/04 09:52:34;;;;;;;1.95;0.70;;;;;;;-142.75;100.00;75755.44;5090476;28;20077;-62
2023/08/04 09:54:59;;;;;;;3.42;0.90;;;;;;;-142.75;100.00;75802.66;5090996;28;20453;-62
2023/08/04 09:57:24;;;;;;;2.75;0.60;;;;;;;-142.75;100.00;75822.34;5091519;28;20025;-62
2023/08/04 09:59:51;;;;;;;1.90;0.80;;;;;;;-142.75;100.00;75808.56;5090784;28;20069;-62
2023/08/04 10:02:20;;;;;;;4.60;0.60;;;;;;;-142.75;100.00;75775.09;5090323;28;20028;-63
2023/08/04 10:04:50;;;;;;;3.97;0.90;;;;;;;-142.75;100.00;75712.13;5090402;28;20508;-62
2023/08/04 10:07:19;;;;;;;8.55;1.45;;;;;;;-142.75;100.00;75733.78;5089993;28;20020;-62
2023/08/04 10:09:46;;;;;;;4.55;0.90;;;;;;;-142.75;100.00;75775.09;5090532;28;20024;-62
2023/08/04 10:12:13;;;;;;;6.03;1.10;;;;;;;-142.75;100.00;75749.53;5090146;28;20032;-62
2023/08/04 10:14:39;;;;;;;4.07;1.10;;;;;;;-142.75;100.00;75751.50;5090416;28;20024;-62
2023/08/04 10:17:05;;;;;;;3.30;0.88;;;;;;;-142.75;100.00;75718.03;5090448;28;20479;-62
2023/08/04 10:19:33;;;;;;;2.67;0.80;;;;;;;-142.75;100.00;75670.81;5090314;28;20502;-62
2023/08/04 10:22:08;;;;;;;3.30;0.82;;;;;;;-142.75;100.00;75651.13;5089956;28;20031;-63
2023/08/04 10:24:37;;;;;;;1.92;0.55;;;;;;;-142.75;100.00;75720.00;5090216;28;20545;-60
2023/08/04 10:27:13;;;;;;;7.88;0.80;;;;;;;-142.75;100.00;75782.97;5090991;28;20024;-62
2023/08/04 10:29:40;;;;;;;4.63;0.77;;;;;;;-142.75;100.00;75779.03;5090271;28;20016;-62
2023/08/04 10:32:08;;;;;;;3.05;0.75;;;;;;;-142.75;100.00;75755.44;5089983;28;20016;-62
2023/08/04 10:34:35;;;;;;;6.20;0.80;;;;;;;-142.75;100.00;75718.03;5090115;28;20539;-62
2023/08/04 10:37:06;;;;;;;4.57;0.70;;;;;;;-142.75;100.00;75702.28;5090039;28;20032;-62
2023/08/04 10:39:45;;;;;;;2.85;0.60;;;;;;;-142.75;100.00;75670.81;5069782;28;20085;-62
2023/08/04 10:43:03;;;;;;;2.40;0.50;;;;;;;-142.75;100.00;75653.09;5069359;28;20055;-62
2023/08/04 10:45:47;;;;;;;;;;;;;;;-142.75;100.00;75696.38;5068902;28;20123;-61
2023/08/04 10:48:14;;;;;;;5.30;0.70;;;;;;;-142.75;100.00;75723.94;5069568;28;19916;-61
2023/08/04 10:50:39;;;;;;;1.27;0.63;;;;;;;-142.75;100.00;75735.75;5069462;28;20112;-62
2023/08/04 10:53:05;;;;;;;4.88;0.60;;;;;;;-142.75;100.00;75698.34;5068936;28;20112;-62
2023/08/04 10:55:33;;;;;;;3.55;1.02;;;;;;;-142.75;100.00;75688.50;5069693;28;20032;-62
2023/08/04 10:57:58;;;;;;;1.60;0.60;;;;;;;-142.75;100.00;75649.16;5069585;28;20024;-63
2023/08/04 11:00:24;;;;;;;1.80;0.50;;;;;;;-142.75;100.00;75637.34;5069492;28;20491;-62
2023/08/04 11:02:49;;;;;;;3.38;0.60;;;;;;;-142.75;100.00;75647.19;5069026;28;20024;-62
2023/08/04 11:05:14;;;;;;;4.00;0.60;;;;;;;-142.75;100.00;75686.53;5069358;28;20054;-63
2023/08/04 11:07:47;;;;;;;2.45;0.70;;;;;;;-142.75;100.00;75625.53;5069339;28;20480;-62